sensor_id;sensor_type;location;lat;lon;timestamp;pressure;altitude;pressure_sealevel;temperature
71463;BMP180;59266;52.608;13.260;2023-04-06T00:00:49;101698.00;;;3.50
71463;BMP180;59266;52.608;13.260;2023-04-06T00:03:16;101702.00;;;3.40
71463;BMP180;59266;52.608;13.260;2023-04-06T00:05:43;101697.00;;;3.40
71463;BMP180;59266;52.608;13.260;2023-04-06T00:08:11;101702.00;;;3.30
71463;BMP180;59266;52.608;13.260;2023-04-06T00:10:38;101687.00;;;3.40
71463;BMP180;59266;52.608;13.260;2023-04-06T00:13:05;101698.00;;;3.40
71463;BMP180;59266;52.608;13.260;2023-04-06T00:15:33;101696.00;;;3.30
71463;BMP180;59266;52.608;13.260;2023-04-06T00:18:00;101698.00;;;3.30
71463;BMP180;59266;52.608;13.260;2023-04-06T00:20:27;101696.00;;;3.30
71463;BMP180;59266;52.608;13.260;2023-04-06T00:22:53;101690.00;;;3.20
71463;BMP180;59266;52.608;13.260;2023-04-06T00:25:21;101699.00;;;3.20
71463;BMP180;59266;52.608;13.260;2023-04-06T00:27:47;101695.00;;;3.00
71463;BMP180;59266;52.608;13.260;2023-04-06T00:30:14;101687.00;;;3.00
71463;BMP180;59266;52.608;13.260;2023-04-06T00:32:41;101684.00;;;2.90
71463;BMP180;59266;52.608;13.260;2023-04-06T00:35:08;101678.00;;;2.90
71463;BMP180;59266;52.608;13.260;2023-04-06T00:37:34;101686.00;;;2.80
71463;BMP180;59266;52.608;13.260;2023-04-06T00:40:01;101686.00;;;2.90
71463;BMP180;59266;52.608;13.260;2023-04-06T00:42:28;101696.00;;;2.70
71463;BMP180;59266;52.608;13.260;2023-04-06T00:44:58;101692.00;;;2.80
71463;BMP180;59266;52.608;13.260;2023-04-06T00:47:25;101689.00;;;2.80
71463;BMP180;59266;52.608;13.260;2023-04-06T00:49:53;101688.00;;;2.70
71463;BMP180;59266;52.608;13.260;2023-04-06T00:52:21;101684.00;;;2.60
71463;BMP180;59266;52.608;13.260;2023-04-06T00:54:49;101682.00;;;2.70
71463;BMP180;59266;52.608;13.260;2023-04-06T00:57:16;101685.00;;;2.70
71463;BMP180;59266;52.608;13.260;2023-04-06T00:59:43;101687.00;;;2.60
71463;BMP180;59266;52.608;13.260;2023-04-06T01:02:10;101682.00;;;2.60
71463;BMP180;59266;52.608;13.260;2023-04-06T01:04:37;101686.00;;;2.50
71463;BMP180;59266;52.608;13.260;2023-04-06T01:07:03;101674.00;;;2.50
71463;BMP180;59266;52.608;13.260;2023-04-06T01:09:30;101672.00;;;2.30
71463;BMP180;59266;52.608;13.260;2023-04-06T01:11:59;101674.00;;;2.30
71463;BMP180;59266;52.608;13.260;2023-04-06T01:14:25;101677.00;;;2.40
71463;BMP180;59266;52.608;13.260;2023-04-06T01:16:52;101676.00;;;2.30
71463;BMP180;59266;52.608;13.260;2023-04-06T01:19:19;101688.00;;;2.30
71463;BMP180;59266;52.608;13.260;2023-04-06T01:21:47;101678.00;;;2.30
71463;BMP180;59266;52.608;13.260;2023-04-06T01:24:15;101684.00;;;2.20
71463;BMP180;59266;52.608;13.260;2023-04-06T01:26:43;101679.00;;;2.10
71463;BMP180;59266;52.608;13.260;2023-04-06T01:29:11;101665.00;;;2.00
71463;BMP180;59266;52.608;13.260;2023-04-06T01:31:38;101667.00;;;2.00
71463;BMP180;59266;52.608;13.260;2023-04-06T01:34:05;101679.00;;;1.90
71463;BMP180;59266;52.608;13.260;2023-04-06T01:36:31;101669.00;;;1.90
71463;BMP180;59266;52.608;13.260;2023-04-06T01:38:58;101682.00;;;1.70
71463;BMP180;59266;52.608;13.260;2023-04-06T01:41:25;101677.00;;;1.80
71463;BMP180;59266;52.608;13.260;2023-04-06T01:43:52;101682.00;;;1.70
71463;BMP180;59266;52.608;13.260;2023-04-06T01:46:21;101687.00;;;1.60
71463;BMP180;59266;52.608;13.260;2023-04-06T01:48:47;101680.00;;;1.50
71463;BMP180;59266;52.608;13.260;2023-04-06T01:51:15;101689.00;;;1.50
71463;BMP180;59266;52.608;13.260;2023-04-06T01:53:41;101672.00;;;1.50
71463;BMP180;59266;52.608;13.260;2023-04-06T01:56:08;101677.00;;;1.50
71463;BMP180;59266;52.608;13.260;2023-04-06T01:58:35;101668.00;;;1.50
71463;BMP180;59266;52.608;13.260;2023-04-06T02:01:02;101671.00;;;1.40
71463;BMP180;59266;52.608;13.260;2023-04-06T02:03:29;101673.00;;;1.30
71463;BMP180;59266;52.608;13.260;2023-04-06T02:05:56;101662.00;;;1.30
71463;BMP180;59266;52.608;13.260;2023-04-06T02:08:22;101666.00;;;1.20
71463;BMP180;59266;52.608;13.260;2023-04-06T02:10:49;101674.00;;;1.10
71463;BMP180;59266;52.608;13.260;2023-04-06T02:13:16;101665.00;;;1.10
71463;BMP180;59266;52.608;13.260;2023-04-06T02:15:43;101669.00;;;1.00
71463;BMP180;59266;52.608;13.260;2023-04-06T02:18:10;101665.00;;;0.90
71463;BMP180;59266;52.608;13.260;2023-04-06T02:20:38;101665.00;;;0.90
71463;BMP180;59266;52.608;13.260;2023-04-06T02:23:05;101653.00;;;0.90
71463;BMP180;59266;52.608;13.260;2023-04-06T02:25:32;101660.00;;;0.70
71463;BMP180;59266;52.608;13.260;2023-04-06T02:27:59;101653.00;;;0.80
71463;BMP180;59266;52.608;13.260;2023-04-06T02:30:26;101666.00;;;0.70
71463;BMP180;59266;52.608;13.260;2023-04-06T02:32:53;101655.00;;;0.70
71463;BMP180;59266;52.608;13.260;2023-04-06T02:35:19;101661.00;;;0.70
71463;BMP180;59266;52.608;13.260;2023-04-06T02:37:46;101655.00;;;0.60
71463;BMP180;59266;52.608;13.260;2023-04-06T02:40:13;101673.00;;;0.60
71463;BMP180;59266;52.608;13.260;2023-04-06T02:42:40;101677.00;;;0.50
71463;BMP180;59266;52.608;13.260;2023-04-06T02:45:07;101672.00;;;0.50
71463;BMP180;59266;52.608;13.260;2023-04-06T02:47:35;101662.00;;;0.50
71463;BMP180;59266;52.608;13.260;2023-04-06T02:50:02;101660.00;;;0.40
71463;BMP180;59266;52.608;13.260;2023-04-06T02:52:29;101675.00;;;0.40
71463;BMP180;59266;52.608;13.260;2023-04-06T02:54:56;101670.00;;;0.30
71463;BMP180;59266;52.608;13.260;2023-04-06T02:57:25;101664.00;;;0.30
71463;BMP180;59266;52.608;13.260;2023-04-06T02:59:52;101677.00;;;0.20
71463;BMP180;59266;52.608;13.260;2023-04-06T03:02:19;101676.00;;;0.20
71463;BMP180;59266;52.608;13.260;2023-04-06T03:04:46;101682.00;;;0.20
71463;BMP180;59266;52.608;13.260;2023-04-06T03:07:13;101667.00;;;0.10
71463;BMP180;59266;52.608;13.260;2023-04-06T03:09:40;101666.00;;;0.10
71463;BMP180;59266;52.608;13.260;2023-04-06T03:12:08;101672.00;;;0.00
71463;BMP180;59266;52.608;13.260;2023-04-06T03:14:35;101679.00;;;0.00
71463;BMP180;59266;52.608;13.260;2023-04-06T03:17:02;101657.00;;;0.00
71463;BMP180;59266;52.608;13.260;2023-04-06T03:19:29;101683.00;;;-0.10
71463;BMP180;59266;52.608;13.260;2023-04-06T03:21:55;101671.00;;;-0.20
71463;BMP180;59266;52.608;13.260;2023-04-06T03:24:22;101653.00;;;-0.10
71463;BMP180;59266;52.608;13.260;2023-04-06T03:26:49;101682.00;;;-0.20
71463;BMP180;59266;52.608;13.260;2023-04-06T03:29:16;101656.00;;;-0.30
71463;BMP180;59266;52.608;13.260;2023-04-06T03:31:43;101678.00;;;-0.20
71463;BMP180;59266;52.608;13.260;2023-04-06T03:34:10;101680.00;;;-0.30
71463;BMP180;59266;52.608;13.260;2023-04-06T03:36:37;101678.00;;;-0.30
71463;BMP180;59266;52.608;13.260;2023-04-06T03:39:04;101692.00;;;-0.50
71463;BMP180;59266;52.608;13.260;2023-04-06T03:41:31;101690.00;;;-0.60
71463;BMP180;59266;52.608;13.260;2023-04-06T03:43:58;101685.00;;;-0.60
71463;BMP180;59266;52.608;13.260;2023-04-06T03:46:25;101691.00;;;-0.60
71463;BMP180;59266;52.608;13.260;2023-04-06T03:48:51;101694.00;;;-0.60
71463;BMP180;59266;52.608;13.260;2023-04-06T03:51:18;101703.00;;;-0.60
71463;BMP180;59266;52.608;13.260;2023-04-06T03:53:45;101703.00;;;-0.70
71463;BMP180;59266;52.608;13.260;2023-04-06T03:56:12;101694.00;;;-0.80
71463;BMP180;59266;52.608;13.260;2023-04-06T03:58:39;101696.00;;;-0.80
71463;BMP180;59266;52.608;13.260;2023-04-06T04:01:05;101708.00;;;-0.80
71463;BMP180;59266;52.608;13.260;2023-04-06T04:03:32;101697.00;;;-0.90
71463;BMP180;59266;52.608;13.260;2023-04-06T04:05:59;101701.00;;;-0.90
71463;BMP180;59266;52.608;13.260;2023-04-06T04:08:26;101703.00;;;-0.80
71463;BMP180;59266;52.608;13.260;2023-04-06T04:10:53;101714.00;;;-0.80
71463;BMP180;59266;52.608;13.260;2023-04-06T04:13:19;101704.00;;;-0.80
71463;BMP180;59266;52.608;13.260;2023-04-06T04:15:46;101724.00;;;-0.90
71463;BMP180;59266;52.608;13.260;2023-04-06T04:18:14;101717.00;;;-0.90
71463;BMP180;59266;52.608;13.260;2023-04-06T04:20:40;101713.00;;;-0.80
71463;BMP180;59266;52.608;13.260;2023-04-06T04:23:07;101701.00;;;-0.80
71463;BMP180;59266;52.608;13.260;2023-04-06T04:25:34;101709.00;;;-0.90
71463;BMP180;59266;52.608;13.260;2023-04-06T04:28:01;101700.00;;;-0.80
71463;BMP180;59266;52.608;13.260;2023-04-06T04:30:27;101708.00;;;-0.90
71463;BMP180;59266;52.608;13.260;2023-04-06T04:32:54;101711.00;;;-0.80
71463;BMP180;59266;52.608;13.260;2023-04-06T04:35:21;101715.00;;;-0.80
71463;BMP180;59266;52.608;13.260;2023-04-06T04:37:47;101708.00;;;-0.90
71463;BMP180;59266;52.608;13.260;2023-04-06T04:40:14;101712.00;;;-0.90
71463;BMP180;59266;52.608;13.260;2023-04-06T04:42:42;101708.00;;;-1.00
71463;BMP180;59266;52.608;13.260;2023-04-06T04:45:09;101710.00;;;-0.90
71463;BMP180;59266;52.608;13.260;2023-04-06T04:47:36;101706.00;;;-0.90
71463;BMP180;59266;52.608;13.260;2023-04-06T04:50:03;101714.00;;;-0.80
71463;BMP180;59266;52.608;13.260;2023-04-06T04:52:30;101721.00;;;-0.90
71463;BMP180;59266;52.608;13.260;2023-04-06T04:54:56;101712.00;;;-0.80
71463;BMP180;59266;52.608;13.260;2023-04-06T04:57:23;101715.00;;;-0.80
71463;BMP180;59266;52.608;13.260;2023-04-06T04:59:50;101709.00;;;-0.80
71463;BMP180;59266;52.608;13.260;2023-04-06T05:02:17;101711.00;;;-0.80
71463;BMP180;59266;52.608;13.260;2023-04-06T05:04:44;101728.00;;;-0.80
71463;BMP180;59266;52.608;13.260;2023-04-06T05:07:11;101723.00;;;-0.80
71463;BMP180;59266;52.608;13.260;2023-04-06T05:09:38;101723.00;;;-0.70
71463;BMP180;59266;52.608;13.260;2023-04-06T05:12:05;101714.00;;;-0.80
71463;BMP180;59266;52.608;13.260;2023-04-06T05:14:31;101722.00;;;-0.70
71463;BMP180;59266;52.608;13.260;2023-04-06T05:16:59;101732.00;;;-0.70
71463;BMP180;59266;52.608;13.260;2023-04-06T05:19:25;101731.00;;;-0.70
71463;BMP180;59266;52.608;13.260;2023-04-06T05:21:52;101729.00;;;-0.70
71463;BMP180;59266;52.608;13.260;2023-04-06T05:24:19;101730.00;;;-0.70
71463;BMP180;59266;52.608;13.260;2023-04-06T05:26:46;101735.00;;;-0.60
71463;BMP180;59266;52.608;13.260;2023-04-06T05:29:13;101717.00;;;-0.60
71463;BMP180;59266;52.608;13.260;2023-04-06T05:31:40;101728.00;;;-0.50
71463;BMP180;59266;52.608;13.260;2023-04-06T05:34:07;101726.00;;;-0.50
71463;BMP180;59266;52.608;13.260;2023-04-06T05:36:36;101737.00;;;-0.40
71463;BMP180;59266;52.608;13.260;2023-04-06T05:39:09;101729.00;;;-0.30
71463;BMP180;59266;52.608;13.260;2023-04-06T05:41:37;101731.00;;;-0.20
71463;BMP180;59266;52.608;13.260;2023-04-06T05:44:04;101727.00;;;-0.10
71463;BMP180;59266;52.608;13.260;2023-04-06T05:46:31;101736.00;;;-0.10
71463;BMP180;59266;52.608;13.260;2023-04-06T05:48:58;101734.00;;;0.00
71463;BMP180;59266;52.608;13.260;2023-04-06T05:51:24;101728.00;;;-0.10
71463;BMP180;59266;52.608;13.260;2023-04-06T05:53:51;101741.00;;;0.10
71463;BMP180;59266;52.608;13.260;2023-04-06T05:56:18;101721.00;;;0.20
71463;BMP180;59266;52.608;13.260;2023-04-06T05:58:45;101619.00;;;0.40
71463;BMP180;59266;52.608;13.260;2023-04-06T06:01:13;101520.00;;;0.80
71463;BMP180;59266;52.608;13.260;2023-04-06T06:03:39;101645.00;;;1.50
71463;BMP180;59266;52.608;13.260;2023-04-06T06:06:06;101552.00;;;2.00
71463;BMP180;59266;52.608;13.260;2023-04-06T06:08:33;101513.00;;;2.50
71463;BMP180;59266;52.608;13.260;2023-04-06T06:11:01;101573.00;;;3.10
71463;BMP180;59266;52.608;13.260;2023-04-06T06:13:28;101445.00;;;3.40
71463;BMP180;59266;52.608;13.260;2023-04-06T06:15:56;101155.00;;;3.70
71463;BMP180;59266;52.608;13.260;2023-04-06T06:18:23;100991.00;;;5.30
71463;BMP180;59266;52.608;13.260;2023-04-06T06:20:49;100830.00;;;8.50
71463;BMP180;59266;52.608;13.260;2023-04-06T06:23:16;100838.00;;;9.80
71463;BMP180;59266;52.608;13.260;2023-04-06T06:25:42;100875.00;;;13.20
71463;BMP180;59266;52.608;13.260;2023-04-06T06:28:09;100867.00;;;14.20
71463;BMP180;59266;52.608;13.260;2023-04-06T06:30:36;100881.00;;;16.00
71463;BMP180;59266;52.608;13.260;2023-04-06T06:33:03;100883.00;;;16.80
71463;BMP180;59266;52.608;13.260;2023-04-06T06:35:32;100878.00;;;17.10
71463;BMP180;59266;52.608;13.260;2023-04-06T06:38:01;100889.00;;;17.30
71463;BMP180;59266;52.608;13.260;2023-04-06T06:40:28;100910.00;;;19.90
71463;BMP180;59266;52.608;13.260;2023-04-06T06:42:55;100898.00;;;18.20
71463;BMP180;59266;52.608;13.260;2023-04-06T06:45:23;101114.00;;;20.50
71463;BMP180;59266;52.608;13.260;2023-04-06T06:47:51;101031.00;;;20.50
71463;BMP180;59266;52.608;13.260;2023-04-06T06:50:22;100920.00;;;20.30
71463;BMP180;59266;52.608;13.260;2023-04-06T06:52:49;101321.00;;;22.20
71463;BMP180;59266;52.608;13.260;2023-04-06T06:55:16;101660.00;;;23.60
71463;BMP180;59266;52.608;13.260;2023-04-06T06:57:42;101723.00;;;24.80
71463;BMP180;59266;52.608;13.260;2023-04-06T07:00:09;101725.00;;;25.80
71463;BMP180;59266;52.608;13.260;2023-04-06T07:02:39;101730.00;;;25.60
71463;BMP180;59266;52.608;13.260;2023-04-06T07:05:06;101727.00;;;24.70
71463;BMP180;59266;52.608;13.260;2023-04-06T07:07:52;101736.00;;;25.10
71463;BMP180;59266;52.608;13.260;2023-04-06T07:10:19;101732.00;;;27.20
71463;BMP180;59266;52.608;13.260;2023-04-06T07:12:49;101748.00;;;28.20
71463;BMP180;59266;52.608;13.260;2023-04-06T07:15:16;101740.00;;;28.90
71463;BMP180;59266;52.608;13.260;2023-04-06T07:17:43;101746.00;;;26.90
71463;BMP180;59266;52.608;13.260;2023-04-06T07:20:13;101747.00;;;26.80
71463;BMP180;59266;52.608;13.260;2023-04-06T07:22:42;101746.00;;;25.60
71463;BMP180;59266;52.608;13.260;2023-04-06T07:25:11;101751.00;;;28.20
71463;BMP180;59266;52.608;13.260;2023-04-06T07:27:38;101751.00;;;29.10
71463;BMP180;59266;52.608;13.260;2023-04-06T07:30:05;101753.00;;;29.40
71463;BMP180;59266;52.608;13.260;2023-04-06T07:32:33;101752.00;;;29.30
71463;BMP180;59266;52.608;13.260;2023-04-06T07:35:01;101749.00;;;28.90
71463;BMP180;59266;52.608;13.260;2023-04-06T07:37:28;101758.00;;;29.80
71463;BMP180;59266;52.608;13.260;2023-04-06T07:39:54;101745.00;;;28.50
71463;BMP180;59266;52.608;13.260;2023-04-06T07:42:21;101748.00;;;27.40
71463;BMP180;59266;52.608;13.260;2023-04-06T07:44:49;101754.00;;;27.50
71463;BMP180;59266;52.608;13.260;2023-04-06T07:47:16;101747.00;;;28.40
71463;BMP180;59266;52.608;13.260;2023-04-06T07:49:43;101749.00;;;29.60
71463;BMP180;59266;52.608;13.260;2023-04-06T07:52:09;101755.00;;;30.10
71463;BMP180;59266;52.608;13.260;2023-04-06T07:54:36;101751.00;;;29.90
71463;BMP180;59266;52.608;13.260;2023-04-06T07:57:04;101748.00;;;30.80
71463;BMP180;59266;52.608;13.260;2023-04-06T07:59:32;101750.00;;;32.50
71463;BMP180;59266;52.608;13.260;2023-04-06T08:02:00;101753.00;;;29.00
71463;BMP180;59266;52.608;13.260;2023-04-06T08:04:31;101754.00;;;30.00
71463;BMP180;59266;52.608;13.260;2023-04-06T08:07:05;101747.00;;;31.00
71463;BMP180;59266;52.608;13.260;2023-04-06T08:09:33;101752.00;;;29.10
71463;BMP180;59266;52.608;13.260;2023-04-06T08:12:01;101757.00;;;30.40
71463;BMP180;59266;52.608;13.260;2023-04-06T08:14:28;101753.00;;;27.00
71463;BMP180;59266;52.608;13.260;2023-04-06T08:16:55;101749.00;;;25.00
71463;BMP180;59266;52.608;13.260;2023-04-06T08:19:31;101754.00;;;27.80
71463;BMP180;59266;52.608;13.260;2023-04-06T08:22:02;101757.00;;;29.30
71463;BMP180;59266;52.608;13.260;2023-04-06T08:24:31;101752.00;;;28.60
71463;BMP180;59266;52.608;13.260;2023-04-06T08:26:58;101752.00;;;26.40
71463;BMP180;59266;52.608;13.260;2023-04-06T08:29:28;101745.00;;;25.70
71463;BMP180;59266;52.608;13.260;2023-04-06T08:31:56;101752.00;;;26.50
71463;BMP180;59266;52.608;13.260;2023-04-06T08:34:23;101751.00;;;26.80
71463;BMP180;59266;52.608;13.260;2023-04-06T08:36:52;101754.00;;;26.10
71463;BMP180;59266;52.608;13.260;2023-04-06T08:39:19;101749.00;;;26.30
71463;BMP180;59266;52.608;13.260;2023-04-06T08:41:52;101751.00;;;27.20
71463;BMP180;59266;52.608;13.260;2023-04-06T08:44:24;101755.00;;;28.00
71463;BMP180;59266;52.608;13.260;2023-04-06T08:46:51;101762.00;;;27.30
71463;BMP180;59266;52.608;13.260;2023-04-06T08:49:22;101754.00;;;28.30
71463;BMP180;59266;52.608;13.260;2023-04-06T08:51:51;101765.00;;;27.80
71463;BMP180;59266;52.608;13.260;2023-04-06T08:54:18;101754.00;;;26.60
71463;BMP180;59266;52.608;13.260;2023-04-06T08:56:45;101752.00;;;24.50
71463;BMP180;59266;52.608;13.260;2023-04-06T08:59:13;101756.00;;;28.40
71463;BMP180;59266;52.608;13.260;2023-04-06T09:01:40;101755.00;;;27.20
71463;BMP180;59266;52.608;13.260;2023-04-06T09:04:08;101754.00;;;27.50
71463;BMP180;59266;52.608;13.260;2023-04-06T09:06:40;101751.00;;;29.50
71463;BMP180;59266;52.608;13.260;2023-04-06T09:09:07;101744.00;;;26.10
71463;BMP180;59266;52.608;13.260;2023-04-06T09:11:45;101747.00;;;28.10
71463;BMP180;59266;52.608;13.260;2023-04-06T09:14:16;101749.00;;;27.10
71463;BMP180;59266;52.608;13.260;2023-04-06T09:16:45;101758.00;;;29.30
71463;BMP180;59266;52.608;13.260;2023-04-06T09:19:12;101745.00;;;26.30
71463;BMP180;59266;52.608;13.260;2023-04-06T09:21:40;101745.00;;;23.80
71463;BMP180;59266;52.608;13.260;2023-04-06T09:24:10;101749.00;;;27.50
71463;BMP180;59266;52.608;13.260;2023-04-06T09:26:47;101742.00;;;27.90
71463;BMP180;59266;52.608;13.260;2023-04-06T09:29:24;101750.00;;;28.40
71463;BMP180;59266;52.608;13.260;2023-04-06T09:32:02;101745.00;;;28.00
71463;BMP180;59266;52.608;13.260;2023-04-06T09:34:29;101741.00;;;29.50
71463;BMP180;59266;52.608;13.260;2023-04-06T09:36:56;101732.00;;;25.50
71463;BMP180;59266;52.608;13.260;2023-04-06T09:39:23;101737.00;;;25.60
71463;BMP180;59266;52.608;13.260;2023-04-06T09:41:52;101730.00;;;25.10
71463;BMP180;59266;52.608;13.260;2023-04-06T09:44:20;101732.00;;;27.30
71463;BMP180;59266;52.608;13.260;2023-04-06T09:46:47;101727.00;;;27.80
71463;BMP180;59266;52.608;13.260;2023-04-06T09:49:30;101725.00;;;25.90
71463;BMP180;59266;52.608;13.260;2023-04-06T09:52:03;101724.00;;;23.80
71463;BMP180;59266;52.608;13.260;2023-04-06T09:54:34;101731.00;;;24.80
71463;BMP180;59266;52.608;13.260;2023-04-06T09:57:13;101719.00;;;27.10
71463;BMP180;59266;52.608;13.260;2023-04-06T10:00:04;101719.00;;;28.10
71463;BMP180;59266;52.608;13.260;2023-04-06T10:02:51;101713.00;;;25.70
71463;BMP180;59266;52.608;13.260;2023-04-06T10:05:37;101709.00;;;24.90
71463;BMP180;59266;52.608;13.260;2023-04-06T10:08:09;101704.00;;;24.70
71463;BMP180;59266;52.608;13.260;2023-04-06T10:10:36;101704.00;;;23.00
71463;BMP180;59266;52.608;13.260;2023-04-06T10:13:05;101705.00;;;24.20
71463;BMP180;59266;52.608;13.260;2023-04-06T10:15:33;101712.00;;;27.10
71463;BMP180;59266;52.608;13.260;2023-04-06T10:18:03;101710.00;;;27.90
71463;BMP180;59266;52.608;13.260;2023-04-06T10:20:47;101711.00;;;23.90
71463;BMP180;59266;52.608;13.260;2023-04-06T10:23:24;101700.00;;;22.60
71463;BMP180;59266;52.608;13.260;2023-04-06T10:25:57;101694.00;;;22.90
71463;BMP180;59266;52.608;13.260;2023-04-06T10:28:34;101697.00;;;22.30
71463;BMP180;59266;52.608;13.260;2023-04-06T10:31:04;101700.00;;;25.00
71463;BMP180;59266;52.608;13.260;2023-04-06T10:33:31;101689.00;;;23.80
71463;BMP180;59266;52.608;13.260;2023-04-06T10:36:12;101719.00;;;22.40
71463;BMP180;59266;52.608;13.260;2023-04-06T10:38:40;101721.00;;;24.40
71463;BMP180;59266;52.608;13.260;2023-04-06T10:41:09;101694.00;;;21.60
71463;BMP180;59266;52.608;13.260;2023-04-06T10:43:40;101696.00;;;22.90
71463;BMP180;59266;52.608;13.260;2023-04-06T10:46:09;101691.00;;;24.40
71463;BMP180;59266;52.608;13.260;2023-04-06T10:48:41;101727.00;;;20.90
71463;BMP180;59266;52.608;13.260;2023-04-06T10:54:03;101728.00;;;21.40
71463;BMP180;59266;52.608;13.260;2023-04-06T10:56:32;101688.00;;;20.70
71463;BMP180;59266;52.608;13.260;2023-04-06T10:59:00;101723.00;;;22.60
71463;BMP180;59266;52.608;13.260;2023-04-06T11:01:27;101683.00;;;21.50
71463;BMP180;59266;52.608;13.260;2023-04-06T11:03:55;101674.00;;;22.40
71463;BMP180;59266;52.608;13.260;2023-04-06T11:06:24;101685.00;;;20.10
71463;BMP180;59266;52.608;13.260;2023-04-06T11:08:51;101689.00;;;20.10
71463;BMP180;59266;52.608;13.260;2023-04-06T11:11:23;101710.00;;;19.20
71463;BMP180;59266;52.608;13.260;2023-04-06T11:13:59;101664.00;;;18.30
71463;BMP180;59266;52.608;13.260;2023-04-06T11:16:28;101676.00;;;20.70
71463;BMP180;59266;52.608;13.260;2023-04-06T11:19:03;101673.00;;;21.10
71463;BMP180;59266;52.608;13.260;2023-04-06T11:21:38;101674.00;;;18.60
71463;BMP180;59266;52.608;13.260;2023-04-06T11:27:03;101659.00;;;18.30
71463;BMP180;59266;52.608;13.260;2023-04-06T11:29:31;101660.00;;;18.80
71463;BMP180;59266;52.608;13.260;2023-04-06T11:32:00;101665.00;;;18.20
71463;BMP180;59266;52.608;13.260;2023-04-06T11:34:28;101661.00;;;17.80
71463;BMP180;59266;52.608;13.260;2023-04-06T11:36:58;101658.00;;;17.20
71463;BMP180;59266;52.608;13.260;2023-04-06T11:39:27;101662.00;;;17.90
71463;BMP180;59266;52.608;13.260;2023-04-06T11:42:00;101659.00;;;18.80
71463;BMP180;59266;52.608;13.260;2023-04-06T11:47:03;101689.00;;;19.10
71463;BMP180;59266;52.608;13.260;2023-04-06T11:49:32;101687.00;;;18.80
71463;BMP180;59266;52.608;13.260;2023-04-06T11:52:02;101663.00;;;16.80
71463;BMP180;59266;52.608;13.260;2023-04-06T11:54:37;101654.00;;;17.50
71463;BMP180;59266;52.608;13.260;2023-04-06T11:57:05;101636.00;;;18.10
71463;BMP180;59266;52.608;13.260;2023-04-06T11:59:32;101640.00;;;17.30
71463;BMP180;59266;52.608;13.260;2023-04-06T12:02:01;101640.00;;;16.70
71463;BMP180;59266;52.608;13.260;2023-04-06T12:04:29;101634.00;;;16.30
71463;BMP180;59266;52.608;13.260;2023-04-06T12:06:58;101639.00;;;17.10
71463;BMP180;59266;52.608;13.260;2023-04-06T12:09:27;101628.00;;;18.30
71463;BMP180;59266;52.608;13.260;2023-04-06T12:11:54;101627.00;;;16.90
71463;BMP180;59266;52.608;13.260;2023-04-06T12:14:21;101634.00;;;16.90
71463;BMP180;59266;52.608;13.260;2023-04-06T12:16:51;101635.00;;;17.20
71463;BMP180;59266;52.608;13.260;2023-04-06T12:19:18;101643.00;;;17.10
71463;BMP180;59266;52.608;13.260;2023-04-06T12:21:45;101634.00;;;18.20
71463;BMP180;59266;52.608;13.260;2023-04-06T12:24:11;101644.00;;;18.10
71463;BMP180;59266;52.608;13.260;2023-04-06T12:26:38;101638.00;;;17.40
71463;BMP180;59266;52.608;13.260;2023-04-06T12:29:07;101628.00;;;17.10
71463;BMP180;59266;52.608;13.260;2023-04-06T12:31:35;101624.00;;;17.60
71463;BMP180;59266;52.608;13.260;2023-04-06T12:34:03;101620.00;;;17.50
71463;BMP180;59266;52.608;13.260;2023-04-06T12:36:30;101622.00;;;16.40
71463;BMP180;59266;52.608;13.260;2023-04-06T12:38:58;101623.00;;;16.30
71463;BMP180;59266;52.608;13.260;2023-04-06T12:41:27;101624.00;;;17.00
71463;BMP180;59266;52.608;13.260;2023-04-06T12:43:54;101622.00;;;17.40
71463;BMP180;59266;52.608;13.260;2023-04-06T12:46:23;101616.00;;;16.90
71463;BMP180;59266;52.608;13.260;2023-04-06T12:48:53;101612.00;;;17.20
71463;BMP180;59266;52.608;13.260;2023-04-06T12:51:21;101621.00;;;16.70
71463;BMP180;59266;52.608;13.260;2023-04-06T12:53:50;101616.00;;;16.80
71463;BMP180;59266;52.608;13.260;2023-04-06T12:56:19;101608.00;;;17.60
71463;BMP180;59266;52.608;13.260;2023-04-06T12:58:47;101601.00;;;17.70
71463;BMP180;59266;52.608;13.260;2023-04-06T13:01:14;101598.00;;;17.30
71463;BMP180;59266;52.608;13.260;2023-04-06T13:03:42;101599.00;;;17.20
71463;BMP180;59266;52.608;13.260;2023-04-06T13:06:09;101605.00;;;17.00
71463;BMP180;59266;52.608;13.260;2023-04-06T13:08:37;101595.00;;;16.50
71463;BMP180;59266;52.608;13.260;2023-04-06T13:11:05;101586.00;;;17.70
71463;BMP180;59266;52.608;13.260;2023-04-06T13:13:35;101597.00;;;17.10
71463;BMP180;59266;52.608;13.260;2023-04-06T13:16:04;101599.00;;;16.90
71463;BMP180;59266;52.608;13.260;2023-04-06T13:18:31;101595.00;;;16.30
71463;BMP180;59266;52.608;13.260;2023-04-06T13:20:59;101591.00;;;17.00
71463;BMP180;59266;52.608;13.260;2023-04-06T13:23:26;101592.00;;;17.20
71463;BMP180;59266;52.608;13.260;2023-04-06T13:25:58;101582.00;;;17.00
71463;BMP180;59266;52.608;13.260;2023-04-06T13:28:25;101580.00;;;16.90
71463;BMP180;59266;52.608;13.260;2023-04-06T13:30:53;101586.00;;;17.60
71463;BMP180;59266;52.608;13.260;2023-04-06T13:33:20;101579.00;;;18.10
71463;BMP180;59266;52.608;13.260;2023-04-06T13:35:47;101584.00;;;17.20
71463;BMP180;59266;52.608;13.260;2023-04-06T13:38:15;101574.00;;;17.30
71463;BMP180;59266;52.608;13.260;2023-04-06T13:40:42;101587.00;;;17.30
71463;BMP180;59266;52.608;13.260;2023-04-06T13:43:09;101574.00;;;18.00
71463;BMP180;59266;52.608;13.260;2023-04-06T13:45:36;101570.00;;;18.00
71463;BMP180;59266;52.608;13.260;2023-04-06T13:48:03;101573.00;;;18.50
71463;BMP180;59266;52.608;13.260;2023-04-06T13:50:32;101569.00;;;18.00
71463;BMP180;59266;52.608;13.260;2023-04-06T13:52:59;101563.00;;;17.70
71463;BMP180;59266;52.608;13.260;2023-04-06T13:55:25;101570.00;;;16.80
71463;BMP180;59266;52.608;13.260;2023-04-06T13:57:52;101566.00;;;16.80
71463;BMP180;59266;52.608;13.260;2023-04-06T14:00:19;101564.00;;;16.80
71463;BMP180;59266;52.608;13.260;2023-04-06T14:02:46;101559.00;;;18.10